createdAt,value
2023-03-04T00:02:23.399Z,97778.09
2023-03-04T00:04:50.267Z,97784.16
2023-03-04T00:07:18.854Z,97785.94
2023-03-04T00:09:46.093Z,97777.19
2023-03-04T00:12:13.236Z,97779.66
2023-03-04T00:14:40.305Z,97779.66
2023-03-04T00:17:07.138Z,97778.72
2023-03-04T00:19:35.007Z,97776.97
2023-03-04T00:22:02.185Z,97776.06
2023-03-04T00:24:28.812Z,97775.97
2023-03-04T00:26:55.407Z,97773.31
2023-03-04T00:29:22.215Z,97771.53
2023-03-04T00:31:48.922Z,97762.00
2023-03-04T00:34:15.527Z,97763.69
2023-03-04T00:36:44.659Z,97768.78
2023-03-04T00:39:12.441Z,97761.84
2023-03-04T00:41:39.668Z,97767.91
2023-03-04T00:44:06.589Z,97759.31
2023-03-04T00:46:33.458Z,97762.78
2023-03-04T00:49:00.094Z,97760.22
2023-03-04T00:51:26.808Z,97755.84
2023-03-04T00:53:53.480Z,97755.88
2023-03-04T00:56:20.089Z,97764.44
2023-03-04T00:58:46.817Z,97761.78
2023-03-04T01:01:13.419Z,97762.56
2023-03-04T01:03:41.500Z,97751.28
2023-03-04T01:06:08.429Z,97751.25
2023-03-04T01:08:35.023Z,97762.41
2023-03-04T01:11:01.613Z,97753.88
2023-03-04T01:13:28.255Z,97747.78
2023-03-04T01:15:55.957Z,97752.84
2023-03-04T01:18:22.596Z,97747.63
2023-03-04T01:20:49.200Z,97745.00
2023-03-04T01:23:15.902Z,97741.56
2023-03-04T01:25:42.827Z,97737.38
2023-03-04T01:28:09.481Z,97744.16
2023-03-04T01:30:36.104Z,97743.09
2023-03-04T01:33:02.775Z,97734.41
2023-03-04T01:35:29.433Z,97724.75
2023-03-04T01:37:56.943Z,97723.81
2023-03-04T01:40:23.922Z,97718.59
2023-03-04T01:42:51.021Z,97705.56
2023-03-04T01:45:19.948Z,97710.72
2023-03-04T01:47:49.165Z,97707.19
2023-03-04T01:50:31.543Z,97704.47
2023-03-04T01:52:58.157Z,97695.78
2023-03-04T01:55:25.127Z,97701.75
2023-03-04T01:57:53.053Z,97698.28
2023-03-04T02:00:27.016Z,97696.44
2023-03-04T02:03:11.355Z,97691.31
2023-03-04T02:05:41.273Z,97694.66
2023-03-04T02:08:09.273Z,97687.69
2023-03-04T02:10:37.245Z,97689.31
2023-03-04T02:13:06.249Z,97686.72
2023-03-04T02:15:33.549Z,97681.50
2023-03-04T02:18:01.194Z,97678.81
2023-03-04T02:21:08.213Z,97675.38
2023-03-04T02:24:10.406Z,97670.16
2023-03-04T02:26:39.786Z,97668.38
2023-03-04T02:29:06.451Z,97671.69
2023-03-04T02:31:39.888Z,97669.97
2023-03-04T02:34:12.601Z,97669.09
2023-03-04T02:36:40.349Z,97667.25
2023-03-04T02:39:13.090Z,97662.94
2023-03-04T02:41:40.035Z,97662.94
2023-03-04T02:44:20.964Z,97664.69
2023-03-04T02:46:48.193Z,97673.31
2023-03-04T02:49:15.099Z,97660.34
2023-03-04T02:51:41.687Z,97664.63
2023-03-04T02:54:16.057Z,97666.34
2023-03-04T02:56:51.837Z,97660.25
2023-03-04T02:59:19.770Z,97665.47
2023-03-04T03:01:46.543Z,97668.97
2023-03-04T03:04:14.128Z,97669.75
2023-03-04T03:06:41.994Z,97666.41
2023-03-04T03:09:09.400Z,97660.34
2023-03-04T03:11:36.530Z,97663.81
2023-03-04T03:14:04.108Z,97660.47
2023-03-04T03:16:31.140Z,97661.28
2023-03-04T03:18:57.889Z,97660.38
2023-03-04T03:21:24.719Z,97656.94
2023-03-04T03:23:51.321Z,97656.88
2023-03-04T03:26:19.841Z,97660.34
2023-03-04T03:28:46.571Z,97657.00
2023-03-04T03:31:13.540Z,97660.44
2023-03-04T03:33:40.300Z,97648.28
2023-03-04T03:36:08.215Z,97651.75
2023-03-04T03:38:35.295Z,97656.94
2023-03-04T03:41:02.010Z,97646.63
2023-03-04T03:43:28.792Z,97644.88
2023-03-04T03:45:55.399Z,97648.38
2023-03-04T03:48:22.088Z,97642.28
2023-03-04T03:50:48.675Z,97647.47
2023-03-04T03:53:15.282Z,97644.84
2023-03-04T03:55:41.952Z,97655.19
2023-03-04T03:58:08.550Z,97650.84
2023-03-04T04:00:35.130Z,97649.16
2023-03-04T04:03:02.100Z,97643.13
2023-03-04T04:05:28.730Z,97644.00
2023-03-04T04:07:56.059Z,97644.00
2023-03-04T04:10:22.650Z,97646.47
2023-03-04T04:12:49.312Z,97645.50
2023-03-04T04:15:15.888Z,97641.09
2023-03-04T04:17:42.548Z,97640.19
2023-03-04T04:20:09.729Z,97638.50
2023-03-04T04:22:36.323Z,97639.44
2023-03-04T04:25:03.072Z,97641.09
2023-03-04T04:27:29.734Z,97637.56
2023-03-04T04:29:56.284Z,97634.06
2023-03-04T04:32:22.926Z,97639.97
2023-03-04T04:34:49.630Z,97632.97
2023-03-04T04:37:16.239Z,97625.19
2023-03-04T04:39:42.824Z,97628.63
2023-03-04T04:42:11.258Z,97631.31
2023-03-04T04:44:39.098Z,97635.63
2023-03-04T04:47:07.261Z,97630.50
2023-03-04T04:49:34.292Z,97623.59
2023-03-04T04:52:00.938Z,97630.53
2023-03-04T04:54:27.589Z,97634.81
2023-03-04T04:56:54.132Z,97629.66
2023-03-04T04:59:20.768Z,97633.09
2023-03-04T05:01:47.673Z,97629.59
2023-03-04T05:04:14.312Z,97627.84
2023-03-04T05:06:41.275Z,97628.75
2023-03-04T05:09:07.993Z,97639.03
2023-03-04T05:11:34.768Z,97626.00
2023-03-04T05:14:01.426Z,97636.25
2023-03-04T05:16:27.968Z,97629.38
2023-03-04T05:18:54.563Z,97629.38
2023-03-04T05:21:21.323Z,97634.50
2023-03-04T05:23:47.955Z,97629.38
2023-03-04T05:26:17.243Z,97631.16
2023-03-04T05:28:44.640Z,97619.72
2023-03-04T05:31:11.924Z,97617.94
2023-03-04T05:33:38.580Z,97625.69
2023-03-04T05:36:06.644Z,97637.84
2023-03-04T05:38:33.333Z,97628.28
2023-03-04T05:41:03.523Z,97633.56
2023-03-04T05:43:31.629Z,97632.78
2023-03-04T05:45:58.213Z,97630.09
2023-03-04T05:48:24.864Z,97625.78
2023-03-04T05:51:00.452Z,97623.19
2023-03-04T05:53:28.552Z,97624.84
2023-03-04T05:55:55.882Z,97630.00
2023-03-04T05:58:23.027Z,97623.94
2023-03-04T06:00:49.636Z,97629.16
2023-03-04T06:03:18.603Z,97630.00
2023-03-04T06:05:45.297Z,97629.91
2023-03-04T06:08:12.370Z,97629.91
2023-03-04T06:10:40.935Z,97623.88
2023-03-04T06:13:08.387Z,97636.84
2023-03-04T06:15:35.044Z,97631.59
2023-03-04T06:18:02.176Z,97631.47
2023-03-04T06:20:28.847Z,97637.63
2023-03-04T06:22:56.605Z,97642.81
2023-03-04T06:25:23.313Z,97641.00
2023-03-04T06:27:50.889Z,97642.72
2023-03-04T06:30:18.549Z,97651.38
2023-03-04T06:32:46.130Z,97649.63
2023-03-04T06:35:14.533Z,97657.38
2023-03-04T06:37:41.232Z,97659.00
2023-03-04T06:40:09.300Z,97652.06
2023-03-04T06:42:36.568Z,97657.81
2023-03-04T06:45:04.426Z,97659.41
2023-03-04T06:47:31.002Z,97666.34
2023-03-04T06:49:57.589Z,97664.56
2023-03-04T06:52:24.263Z,97667.25
2023-03-04T06:54:50.876Z,97674.19
2023-03-04T06:57:17.549Z,97675.72
2023-03-04T06:59:44.151Z,97679.31
2023-03-04T07:02:21.458Z,97680.94
2023-03-04T07:04:48.189Z,97677.28
2023-03-04T07:07:14.766Z,97678.25
2023-03-04T07:09:41.400Z,97678.81
2023-03-04T07:12:08.074Z,97680.72
2023-03-04T07:14:34.678Z,97685.03
2023-03-04T07:17:01.369Z,97685.03
2023-03-04T07:19:28.016Z,97683.19
2023-03-04T07:21:54.567Z,97684.91
2023-03-04T07:24:21.208Z,97684.00
2023-03-04T07:26:47.757Z,97690.75
2023-03-04T07:29:14.423Z,97683.72
2023-03-04T07:31:41.110Z,97691.19
2023-03-04T07:34:15.154Z,97687.75
2023-03-04T07:36:42.356Z,97690.41
2023-03-04T07:39:11.422Z,97684.94
2023-03-04T07:41:38.084Z,97684.13
2023-03-04T07:44:06.697Z,97695.47
2023-03-04T07:46:33.911Z,97701.38
2023-03-04T07:49:00.670Z,97700.53
2023-03-04T07:51:27.933Z,97691.66
2023-03-04T07:53:57.937Z,97702.06
2023-03-04T07:56:27.114Z,97699.44
2023-03-04T07:58:54.008Z,97700.31
2023-03-04T08:01:23.918Z,97701.06
2023-03-04T08:03:50.673Z,97704.44
2023-03-04T08:06:19.096Z,97703.56
2023-03-04T08:08:46.288Z,97705.09
2023-03-04T08:11:15.749Z,97697.94
2023-03-04T08:13:42.622Z,97710.22
2023-03-04T08:16:12.636Z,97703.94
2023-03-04T08:18:40.537Z,97707.47
2023-03-04T08:21:10.341Z,97706.34
2023-03-04T08:23:37.170Z,97710.69
2023-03-04T08:26:09.646Z,97708.84
2023-03-04T08:28:36.522Z,97709.75
2023-03-04T08:31:03.752Z,97707.06
2023-03-04T08:33:31.381Z,97702.69
2023-03-04T08:35:58.103Z,97700.00
2023-03-04T08:38:24.775Z,97702.69
2023-03-04T08:40:57.698Z,97703.34
2023-03-04T08:43:25.863Z,97700.75
2023-03-04T08:45:54.331Z,97705.06
2023-03-04T08:48:21.850Z,97706.59
2023-03-04T08:50:49.302Z,97702.22
2023-03-04T08:53:16.681Z,97706.44
2023-03-04T08:55:43.529Z,97703.13
2023-03-04T08:58:10.922Z,97707.41
2023-03-04T09:00:42.957Z,97706.38
2023-03-04T09:03:12.279Z,97699.44
2023-03-04T09:05:39.175Z,97703.81
2023-03-04T09:08:06.214Z,97698.41
2023-03-04T09:10:32.900Z,97696.72
2023-03-04T09:12:59.544Z,97703.38
2023-03-04T09:15:26.164Z,97705.09
2023-03-04T09:17:53.027Z,97711.38
2023-03-04T09:20:21.112Z,97712.78
2023-03-04T09:22:47.678Z,97707.63
2023-03-04T09:25:15.490Z,97704.16
2023-03-04T09:27:42.134Z,97705.78
2023-03-04T09:30:10.223Z,97709.13
2023-03-04T09:32:36.974Z,97713.28
2023-03-04T09:35:04.009Z,97702.19
2023-03-04T09:37:30.662Z,97710.41
2023-03-04T09:39:57.274Z,97703.41
2023-03-04T09:42:51.963Z,97712.81
2023-03-04T09:45:24.940Z,97714.63
2023-03-04T09:47:54.252Z,97710.13
2023-03-04T09:50:21.985Z,97709.31
2023-03-04T09:53:12.875Z,97715.31
2023-03-04T09:55:42.259Z,97716.28
2023-03-04T09:58:36.935Z,97710.75
2023-03-04T10:01:41.676Z,97714.44
2023-03-04T10:04:41.428Z,97711.00
2023-03-04T10:07:20.425Z,97708.41
2023-03-04T10:10:04.965Z,97715.09
2023-03-04T10:12:36.684Z,97701.00
2023-03-04T10:15:26.956Z,97708.94
2023-03-04T10:18:02.734Z,97703.72
2023-03-04T10:20:44.157Z,97698.34
2023-03-04T10:23:18.185Z,97703.72
2023-03-04T10:25:47.067Z,97703.28
2023-03-04T10:28:20.205Z,97700.94
2023-03-04T10:31:05.002Z,97700.50
2023-03-04T10:33:37.231Z,97693.88
2023-03-04T10:36:06.933Z,97699.94
2023-03-04T10:38:40.174Z,97693.13
2023-03-04T10:41:20.428Z,97697.16
2023-03-04T10:44:00.484Z,97698.25
2023-03-04T10:46:27.278Z,97703.47
2023-03-04T10:48:55.054Z,97696.59
2023-03-04T10:51:23.263Z,97697.34
2023-03-04T10:54:10.182Z,97699.59
2023-03-04T10:56:46.366Z,97702.16
2023-03-04T10:59:33.920Z,97706.44
2023-03-04T11:02:13.379Z,97694.34
2023-03-04T11:04:40.215Z,97693.31
2023-03-04T11:07:11.028Z,97696.66
2023-03-04T11:09:40.162Z,97698.31
2023-03-04T11:12:15.377Z,97691.22
2023-03-04T11:14:49.128Z,97694.50
2023-03-04T11:17:45.541Z,97688.78
2023-03-04T11:20:38.026Z,97691.84
2023-03-04T11:23:11.319Z,97691.38
2023-03-04T11:25:44.028Z,97691.44
2023-03-04T11:28:26.712Z,97681.91
2023-03-04T11:31:10.147Z,97679.94
2023-03-04T11:33:45.539Z,97670.19
2023-03-04T11:36:12.137Z,97672.66
2023-03-04T11:38:46.892Z,97671.75
2023-03-04T11:41:20.535Z,97671.59
2023-03-04T11:43:47.922Z,97674.06
2023-03-04T11:46:50.845Z,97667.59
2023-03-04T11:49:58.927Z,97661.47
2023-03-04T11:52:40.016Z,97656.66
2023-03-04T11:55:09.464Z,97645.00
2023-03-04T11:57:47.819Z,97643.91
2023-03-04T12:00:36.026Z,97635.53
2023-03-04T12:03:44.383Z,97628.00
2023-03-04T12:06:22.824Z,97631.09
2023-03-04T12:09:17.295Z,97632.31
2023-03-04T12:11:50.182Z,97623.97
2023-03-04T12:14:25.538Z,97631.44
2023-03-04T12:17:20.359Z,97615.81
2023-03-04T12:20:08.744Z,97616.75
2023-03-04T12:22:51.444Z,97620.56
2023-03-04T12:25:33.764Z,97620.13
2023-03-04T12:28:22.976Z,97621.16
2023-03-04T12:31:07.786Z,97623.53
2023-03-04T12:33:51.375Z,97614.00
2023-03-04T12:36:56.604Z,97610.44
2023-03-04T12:39:37.981Z,97606.19
2023-03-04T12:42:17.192Z,97597.31
2023-03-04T12:45:07.273Z,97597.53
2023-03-04T12:48:15.053Z,97586.66
2023-03-04T12:51:04.921Z,97586.47
2023-03-04T12:54:23.954Z,97588.66
2023-03-04T12:57:00.910Z,97586.31
2023-03-04T12:59:34.303Z,97587.59
2023-03-04T13:02:10.069Z,97579.81
2023-03-04T13:05:14.149Z,97570.81
2023-03-04T13:08:19.906Z,97577.25
2023-03-04T13:10:46.566Z,97578.38
2023-03-04T13:13:42.473Z,97573.13
2023-03-04T13:16:11.964Z,97568.84
2023-03-04T13:18:39.557Z,97564.97
2023-03-04T13:21:12.252Z,97565.28
2023-03-04T13:23:39.658Z,97560.59
2023-03-04T13:26:10.241Z,97555.00
2023-03-04T13:28:37.417Z,97555.34
2023-03-04T13:31:09.754Z,97553.78
2023-03-04T13:33:36.350Z,97554.03
2023-03-04T13:36:25.608Z,97555.72
2023-03-04T13:39:17.006Z,97551.78
2023-03-04T13:41:49.922Z,97553.31
2023-03-04T13:44:51.768Z,97552.03
2023-03-04T13:47:21.422Z,97544.97
2023-03-04T13:49:48.416Z,97550.13
2023-03-04T13:52:44.356Z,97546.19
2023-03-04T13:55:33.274Z,97543.88
2023-03-04T13:58:00.616Z,97546.84
2023-03-04T14:00:28.776Z,97543.31
2023-03-04T14:02:55.586Z,97543.56
2023-03-04T14:05:22.222Z,97540.38
2023-03-04T14:07:48.923Z,97532.94
2023-03-04T14:10:24.802Z,97530.56
2023-03-04T14:12:57.647Z,97535.66
2023-03-04T14:15:29.364Z,97528.50
2023-03-04T14:18:05.299Z,97527.31
2023-03-04T14:20:37.504Z,97527.75
2023-03-04T14:23:23.563Z,97517.09
2023-03-04T14:25:50.367Z,97523.16
2023-03-04T14:28:20.803Z,97518.84
2023-03-04T14:31:01.917Z,97521.69
2023-03-04T14:33:33.598Z,97517.47
2023-03-04T14:36:04.697Z,97518.88
2023-03-04T14:38:38.600Z,97511.63
2023-03-04T14:41:19.347Z,97509.78
2023-03-04T14:44:08.138Z,97503.50
2023-03-04T14:46:41.157Z,97503.69
2023-03-04T14:49:17.204Z,97508.91
2023-03-04T14:51:53.543Z,97498.28
2023-03-04T14:54:34.228Z,97493.06
2023-03-04T14:57:27.535Z,97495.78
2023-03-04T14:59:55.603Z,97495.09
2023-03-04T15:02:38.937Z,97488.25
2023-03-04T15:05:25.450Z,97489.81
2023-03-04T15:07:59.536Z,97487.22
2023-03-04T15:10:30.158Z,97484.50
2023-03-04T15:13:03.355Z,97481.59
2023-03-04T15:15:39.807Z,97486.63
2023-03-04T15:18:28.439Z,97483.94
2023-03-04T15:21:00.725Z,97480.25
2023-03-04T15:23:30.274Z,97485.41
2023-03-04T15:26:02.096Z,97481.09
2023-03-04T15:28:37.119Z,97471.63
2023-03-04T15:31:14.797Z,97478.56
2023-03-04T15:33:41.474Z,97480.47
2023-03-04T15:36:14.139Z,97473.69
2023-03-04T15:38:43.675Z,97469.53
2023-03-04T15:41:12.348Z,97477.56
2023-03-04T15:43:39.380Z,97475.00
2023-03-04T15:46:06.665Z,97477.25
2023-03-04T15:48:33.417Z,97472.81
2023-03-04T15:51:02.317Z,97478.88
2023-03-04T15:53:36.588Z,97469.34
2023-03-04T15:56:08.137Z,97471.31
2023-03-04T15:58:35.432Z,97480.00
2023-03-04T16:01:02.649Z,97472.03
2023-03-04T16:03:29.439Z,97468.56
2023-03-04T16:05:57.176Z,97473.91
2023-03-04T16:08:27.386Z,97466.13
2023-03-04T16:10:54.820Z,97468.91
2023-03-04T16:13:23.883Z,97469.13
2023-03-04T16:15:50.883Z,97468.41
2023-03-04T16:18:18.095Z,97465.91
2023-03-04T16:20:47.681Z,97468.47
2023-03-04T16:23:18.762Z,97461.66
2023-03-04T16:25:47.137Z,97465.25
2023-03-04T16:28:14.070Z,97464.50
2023-03-04T16:30:41.690Z,97467.06
2023-03-04T16:33:08.970Z,97461.00
2023-03-04T16:35:37.732Z,97455.81
2023-03-04T16:38:07.288Z,97461.88
2023-03-04T16:40:33.953Z,97462.91
2023-03-04T16:43:00.537Z,97460.44
2023-03-04T16:45:30.262Z,97468.25
2023-03-04T16:47:57.216Z,97470.06
2023-03-04T16:50:27.380Z,97470.03
2023-03-04T16:52:55.710Z,97465.66
2023-03-04T16:55:28.205Z,97473.47
2023-03-04T16:57:56.155Z,97467.50
2023-03-04T17:00:24.059Z,97463.31
2023-03-04T17:03:08.451Z,97463.31
2023-03-04T17:05:35.089Z,97469.44
2023-03-04T17:08:01.694Z,97466.06
2023-03-04T17:10:28.364Z,97459.16
2023-03-04T17:12:54.997Z,97457.53
2023-03-04T17:15:21.682Z,97463.66
2023-03-04T17:17:48.442Z,97467.13
2023-03-04T17:20:17.234Z,97465.34
2023-03-04T17:22:44.478Z,97468.03
2023-03-04T17:25:12.457Z,97462.09
2023-03-04T17:27:39.358Z,97456.03
2023-03-04T17:30:08.017Z,97466.53
2023-03-04T17:32:35.677Z,97456.94
2023-03-04T17:35:03.333Z,97469.09
2023-03-04T17:37:29.978Z,97463.06
2023-03-04T17:39:56.555Z,97473.50
2023-03-04T17:42:23.144Z,97456.25
2023-03-04T17:44:49.823Z,97455.31
2023-03-04T17:47:17.207Z,97445.94
2023-03-04T17:49:43.830Z,97452.00
2023-03-04T17:52:11.186Z,97463.41
2023-03-04T17:54:38.054Z,97460.81
2023-03-04T17:57:04.709Z,97458.25
2023-03-04T17:59:31.488Z,97453.03
2023-03-04T18:01:58.197Z,97458.25
2023-03-04T18:04:24.878Z,97453.88
2023-03-04T18:06:51.457Z,97459.13
2023-03-04T18:09:18.066Z,97457.38
2023-03-04T18:11:44.906Z,97455.59
2023-03-04T18:14:12.760Z,97455.59
2023-03-04T18:16:39.879Z,97459.13
2023-03-04T18:19:06.481Z,97446.00
2023-03-04T18:21:33.190Z,97451.22
2023-03-04T18:24:00.034Z,97451.28
2023-03-04T18:26:27.724Z,97447.75
2023-03-04T18:28:55.422Z,97449.47
2023-03-04T18:31:24.743Z,97450.38
2023-03-04T18:33:51.722Z,97445.09
2023-03-04T18:36:18.397Z,97448.59
2023-03-04T18:38:45.048Z,97447.63
2023-03-04T18:41:13.670Z,97446.78
2023-03-04T18:43:40.765Z,97445.03
2023-03-04T18:46:16.523Z,97446.66
2023-03-04T18:48:49.657Z,97450.13
2023-03-04T18:51:16.578Z,97446.66
2023-03-04T18:53:43.148Z,97442.41
2023-03-04T18:56:14.243Z,97444.31
2023-03-04T18:58:44.247Z,97445.16
2023-03-04T19:01:13.911Z,97444.31
2023-03-04T19:03:41.791Z,97439.94
2023-03-04T19:06:09.103Z,97446.00
2023-03-04T19:08:35.891Z,97450.47
2023-03-04T19:11:02.528Z,97447.06
2023-03-04T19:13:30.705Z,97454.09
2023-03-04T19:15:57.340Z,97447.84
2023-03-04T19:18:24.782Z,97445.44
2023-03-04T19:20:51.456Z,97450.00
2023-03-04T19:23:18.144Z,97460.59
2023-03-04T19:25:45.031Z,97463.22
2023-03-04T19:28:12.129Z,97464.94
2023-03-04T19:30:40.125Z,97460.63
2023-03-04T19:33:07.173Z,97459.84
2023-03-04T19:35:34.181Z,97464.31
2023-03-04T19:38:01.070Z,97462.56
2023-03-04T19:40:28.410Z,97460.81
2023-03-04T19:42:56.680Z,97453.00
2023-03-04T19:45:24.854Z,97452.03
2023-03-04T19:47:51.951Z,97451.38
2023-03-04T19:50:19.242Z,97453.13
2023-03-04T19:52:45.964Z,97448.03
2023-03-04T19:55:15.075Z,97455.75
2023-03-04T19:57:44.824Z,97452.28
2023-03-04T20:00:12.679Z,97452.34
2023-03-04T20:02:39.991Z,97452.28
2023-03-04T20:05:07.221Z,97456.59
2023-03-04T20:07:33.833Z,97456.06
2023-03-04T20:10:00.446Z,97461.22
2023-03-04T20:12:27.313Z,97459.25
2023-03-04T20:14:54.010Z,97453.06
2023-03-04T20:17:20.750Z,97447.25
2023-03-04T20:19:47.482Z,97453.97
2023-03-04T20:22:14.089Z,97455.00
2023-03-04T20:24:40.689Z,97457.13
2023-03-04T20:27:07.296Z,97457.94
2023-03-04T20:29:33.904Z,97452.72
2023-03-04T20:32:01.431Z,97451.06
2023-03-04T20:34:28.096Z,97449.31
2023-03-04T20:36:54.692Z,97451.06
2023-03-04T20:39:29.286Z,97452.84
2023-03-04T20:41:59.528Z,97452.00
2023-03-04T20:44:27.283Z,97456.22
2023-03-04T20:46:53.896Z,97453.75
2023-03-04T20:49:25.548Z,97458.97
2023-03-04T20:52:03.346Z,97458.06
2023-03-04T20:54:30.748Z,97454.56
2023-03-04T20:56:57.567Z,97454.47
2023-03-04T20:59:24.420Z,97464.00
2023-03-04T21:01:52.400Z,97457.13
2023-03-04T21:04:20.349Z,97455.38
2023-03-04T21:06:51.683Z,97448.41
2023-03-04T21:09:20.786Z,97451.94
2023-03-04T21:11:48.734Z,97452.72
2023-03-04T21:14:23.072Z,97449.22
2023-03-04T21:16:53.416Z,97449.16
2023-03-04T21:19:22.833Z,97448.41
2023-03-04T21:21:50.748Z,97445.81
2023-03-04T21:24:20.725Z,97436.22
2023-03-04T21:26:48.053Z,97430.31
2023-03-04T21:29:16.569Z,97438.19
2023-03-04T21:31:53.422Z,97436.59
2023-03-04T21:34:28.241Z,97439.16
2023-03-04T21:36:54.837Z,97440.06
2023-03-04T21:39:24.133Z,97439.25
2023-03-04T21:41:51.353Z,97437.66
2023-03-04T21:44:28.015Z,97431.59
2023-03-04T21:46:59.937Z,97432.31
2023-03-04T21:49:26.772Z,97442.69
2023-03-04T21:51:53.506Z,97438.31
2023-03-04T21:54:20.316Z,97433.09
2023-03-04T21:56:46.947Z,97432.28
2023-03-04T21:59:14.634Z,97435.69
2023-03-04T22:01:41.743Z,97433.13
2023-03-04T22:04:08.948Z,97432.19
2023-03-04T22:06:35.799Z,97439.28
2023-03-04T22:09:04.699Z,97435.91
2023-03-04T22:11:32.220Z,97430.75
2023-03-04T22:14:01.940Z,97439.41
2023-03-04T22:16:29.117Z,97435.00
2023-03-04T22:18:55.863Z,97427.22
2023-03-04T22:21:23.489Z,97435.00
2023-03-04T22:23:50.325Z,97430.63
2023-03-04T22:26:21.055Z,97429.66
2023-03-04T22:28:47.801Z,97429.66
2023-03-04T22:31:16.158Z,97424.44
2023-03-04T22:33:44.411Z,97426.31
2023-03-04T22:36:12.721Z,97419.53
2023-03-04T22:38:40.445Z,97421.97
2023-03-04T22:41:14.483Z,97425.47
2023-03-04T22:43:41.705Z,97421.06
2023-03-04T22:46:24.639Z,97426.31
2023-03-04T22:48:56.311Z,97422.81
2023-03-04T22:51:23.411Z,97423.72
2023-03-04T22:53:51.937Z,97421.16
2023-03-04T22:56:19.773Z,97417.78
2023-03-04T22:58:46.972Z,97411.72
2023-03-04T23:01:16.734Z,97410.94
2023-03-04T23:03:45.661Z,97416.09
2023-03-04T23:06:18.197Z,97417.00
2023-03-04T23:08:46.972Z,97414.47
2023-03-04T23:11:16.881Z,97411.78
2023-03-04T23:13:44.631Z,97407.44
2023-03-04T23:16:13.773Z,97416.09
2023-03-04T23:18:43.695Z,97409.97
2023-03-04T23:21:13.939Z,97405.53
2023-03-04T23:23:41.652Z,97398.69
2023-03-04T23:26:21.174Z,97407.59
2023-03-04T23:28:48.453Z,97412.75
2023-03-04T23:31:15.870Z,97412.81
2023-03-04T23:33:45.076Z,97405.72
2023-03-04T23:36:15.225Z,97406.63
2023-03-04T23:38:44.199Z,97399.84
2023-03-04T23:41:13.950Z,97401.81
2023-03-04T23:43:40.976Z,97396.34
2023-03-04T23:46:09.366Z,97394.66
2023-03-04T23:48:36.770Z,97390.38
2023-03-04T23:51:03.941Z,97390.41
2023-03-04T23:53:34.441Z,97394.34
2023-03-04T23:56:01.093Z,97384.09
2023-03-04T23:58:28.429Z,97381.81
